sensor_id;sensor_type;location;lat;lon;timestamp;P1;durP1;ratioP1;P2;durP2;ratioP2
74995;SDS011;63545;51.690;5.202;2023-04-24T00:00:00;22.95;;;12.00;;
74995;SDS011;63545;51.690;5.202;2023-04-24T00:02:26;31.33;;;16.07;;
74995;SDS011;63545;51.690;5.202;2023-04-24T00:04:51;32.58;;;14.73;;
74995;SDS011;63545;51.690;5.202;2023-04-24T00:07:16;31.97;;;15.50;;
74995;SDS011;63545;51.690;5.202;2023-04-24T00:09:42;39.03;;;17.73;;
74995;SDS011;63545;51.690;5.202;2023-04-24T00:12:08;41.15;;;18.48;;
74995;SDS011;63545;51.690;5.202;2023-04-24T00:14:34;51.93;;;21.13;;
74995;SDS011;63545;51.690;5.202;2023-04-24T00:17:00;47.90;;;20.45;;
74995;SDS011;63545;51.690;5.202;2023-04-24T00:19:25;46.10;;;19.83;;
74995;SDS011;63545;51.690;5.202;2023-04-24T00:21:50;61.13;;;23.07;;
74995;SDS011;63545;51.690;5.202;2023-04-24T00:24:16;60.03;;;24.93;;
74995;SDS011;63545;51.690;5.202;2023-04-24T00:26:42;61.05;;;24.08;;
74995;SDS011;63545;51.690;5.202;2023-04-24T00:29:07;65.80;;;24.73;;
74995;SDS011;63545;51.690;5.202;2023-04-24T00:31:33;60.30;;;24.67;;
74995;SDS011;63545;51.690;5.202;2023-04-24T00:34:00;65.13;;;25.42;;
74995;SDS011;63545;51.690;5.202;2023-04-24T00:36:25;61.47;;;26.00;;
74995;SDS011;63545;51.690;5.202;2023-04-24T00:38:51;57.65;;;24.80;;
74995;SDS011;63545;51.690;5.202;2023-04-24T00:41:17;58.73;;;23.90;;
74995;SDS011;63545;51.690;5.202;2023-04-24T00:43:42;50.37;;;22.73;;
74995;SDS011;63545;51.690;5.202;2023-04-24T00:46:08;54.03;;;21.03;;
74995;SDS011;63545;51.690;5.202;2023-04-24T00:48:33;58.35;;;22.80;;
74995;SDS011;63545;51.690;5.202;2023-04-24T00:50:59;53.20;;;22.33;;
74995;SDS011;63545;51.690;5.202;2023-04-24T00:53:24;53.73;;;23.17;;
74995;SDS011;63545;51.690;5.202;2023-04-24T00:55:50;52.35;;;21.60;;
74995;SDS011;63545;51.690;5.202;2023-04-24T00:58:16;44.73;;;20.13;;
74995;SDS011;63545;51.690;5.202;2023-04-24T01:00:41;52.83;;;22.50;;
74995;SDS011;63545;51.690;5.202;2023-04-24T01:03:06;55.30;;;21.50;;
74995;SDS011;63545;51.690;5.202;2023-04-24T01:05:32;58.00;;;23.63;;
74995;SDS011;63545;51.690;5.202;2023-04-24T01:07:58;52.85;;;23.85;;
74995;SDS011;63545;51.690;5.202;2023-04-24T01:10:24;50.50;;;21.90;;
74995;SDS011;63545;51.690;5.202;2023-04-24T01:12:49;56.10;;;23.80;;
74995;SDS011;63545;51.690;5.202;2023-04-24T01:15:15;50.45;;;23.98;;
74995;SDS011;63545;51.690;5.202;2023-04-24T01:17:40;54.77;;;24.67;;
74995;SDS011;63545;51.690;5.202;2023-04-24T01:20:06;54.77;;;24.30;;
74995;SDS011;63545;51.690;5.202;2023-04-24T01:22:34;62.22;;;27.35;;
74995;SDS011;63545;51.690;5.202;2023-04-24T01:25:00;50.63;;;23.95;;
74995;SDS011;63545;51.690;5.202;2023-04-24T01:27:26;65.20;;;29.47;;
74995;SDS011;63545;51.690;5.202;2023-04-24T01:29:51;40.22;;;18.27;;
74995;SDS011;63545;51.690;5.202;2023-04-24T01:32:17;59.60;;;27.43;;
74995;SDS011;63545;51.690;5.202;2023-04-24T01:34:43;57.72;;;26.27;;
74995;SDS011;63545;51.690;5.202;2023-04-24T01:37:09;54.70;;;24.93;;
74995;SDS011;63545;51.690;5.202;2023-04-24T01:39:34;47.83;;;24.33;;
74995;SDS011;63545;51.690;5.202;2023-04-24T01:41:59;47.73;;;23.43;;
74995;SDS011;63545;51.690;5.202;2023-04-24T01:44:26;45.55;;;22.42;;
74995;SDS011;63545;51.690;5.202;2023-04-24T01:46:52;48.95;;;22.73;;
74995;SDS011;63545;51.690;5.202;2023-04-24T01:49:19;45.20;;;21.35;;
74995;SDS011;63545;51.690;5.202;2023-04-24T01:51:44;47.20;;;20.17;;
74995;SDS011;63545;51.690;5.202;2023-04-24T01:54:10;43.97;;;21.05;;
74995;SDS011;63545;51.690;5.202;2023-04-24T01:56:35;44.57;;;21.03;;
74995;SDS011;63545;51.690;5.202;2023-04-24T01:59:02;45.60;;;21.43;;
74995;SDS011;63545;51.690;5.202;2023-04-24T02:01:29;47.60;;;22.47;;
74995;SDS011;63545;51.690;5.202;2023-04-24T02:03:58;47.45;;;23.27;;
74995;SDS011;63545;51.690;5.202;2023-04-24T02:06:24;42.37;;;20.30;;
74995;SDS011;63545;51.690;5.202;2023-04-24T02:08:49;45.95;;;24.08;;
74995;SDS011;63545;51.690;5.202;2023-04-24T02:11:15;50.77;;;25.40;;
74995;SDS011;63545;51.690;5.202;2023-04-24T02:13:40;57.57;;;26.57;;
74995;SDS011;63545;51.690;5.202;2023-04-24T02:16:05;48.73;;;25.30;;
74995;SDS011;63545;51.690;5.202;2023-04-24T02:18:31;42.83;;;20.40;;
74995;SDS011;63545;51.690;5.202;2023-04-24T02:20:56;50.87;;;23.50;;
74995;SDS011;63545;51.690;5.202;2023-04-24T02:23:21;56.40;;;25.83;;
74995;SDS011;63545;51.690;5.202;2023-04-24T02:25:47;53.47;;;25.65;;
74995;SDS011;63545;51.690;5.202;2023-04-24T02:28:12;52.33;;;24.93;;
74995;SDS011;63545;51.690;5.202;2023-04-24T02:30:37;52.23;;;26.07;;
74995;SDS011;63545;51.690;5.202;2023-04-24T02:33:03;50.07;;;24.17;;
74995;SDS011;63545;51.690;5.202;2023-04-24T02:35:28;48.07;;;24.50;;
74995;SDS011;63545;51.690;5.202;2023-04-24T02:37:53;48.90;;;22.77;;
74995;SDS011;63545;51.690;5.202;2023-04-24T02:40:19;53.77;;;24.50;;
74995;SDS011;63545;51.690;5.202;2023-04-24T02:42:44;51.25;;;23.17;;
74995;SDS011;63545;51.690;5.202;2023-04-24T02:45:10;53.27;;;23.97;;
74995;SDS011;63545;51.690;5.202;2023-04-24T02:47:35;57.90;;;26.97;;
74995;SDS011;63545;51.690;5.202;2023-04-24T02:50:01;55.33;;;25.43;;
74995;SDS011;63545;51.690;5.202;2023-04-24T02:52:27;56.72;;;25.50;;
74995;SDS011;63545;51.690;5.202;2023-04-24T02:54:53;63.57;;;26.27;;
74995;SDS011;63545;51.690;5.202;2023-04-24T02:57:19;52.13;;;23.67;;
74995;SDS011;63545;51.690;5.202;2023-04-24T02:59:44;54.43;;;26.00;;
74995;SDS011;63545;51.690;5.202;2023-04-24T03:02:09;57.47;;;27.53;;
74995;SDS011;63545;51.690;5.202;2023-04-24T03:04:35;62.10;;;26.43;;
74995;SDS011;63545;51.690;5.202;2023-04-24T03:07:00;61.27;;;27.67;;
74995;SDS011;63545;51.690;5.202;2023-04-24T03:09:26;61.67;;;26.23;;
74995;SDS011;63545;51.690;5.202;2023-04-24T03:11:51;55.30;;;26.10;;
74995;SDS011;63545;51.690;5.202;2023-04-24T03:14:16;51.50;;;24.60;;
74995;SDS011;63545;51.690;5.202;2023-04-24T03:16:42;57.57;;;25.20;;
74995;SDS011;63545;51.690;5.202;2023-04-24T03:19:07;64.32;;;27.15;;
74995;SDS011;63545;51.690;5.202;2023-04-24T03:21:33;58.83;;;23.77;;
74995;SDS011;63545;51.690;5.202;2023-04-24T03:23:58;55.03;;;24.90;;
74995;SDS011;63545;51.690;5.202;2023-04-24T03:26:23;56.80;;;23.97;;
74995;SDS011;63545;51.690;5.202;2023-04-24T03:28:49;56.08;;;24.30;;
74995;SDS011;63545;51.690;5.202;2023-04-24T03:31:15;52.97;;;23.37;;
74995;SDS011;63545;51.690;5.202;2023-04-24T03:33:41;54.92;;;25.23;;
74995;SDS011;63545;51.690;5.202;2023-04-24T03:36:07;59.63;;;25.13;;
74995;SDS011;63545;51.690;5.202;2023-04-24T03:38:32;54.73;;;24.23;;
74995;SDS011;63545;51.690;5.202;2023-04-24T03:40:57;54.27;;;24.63;;
74995;SDS011;63545;51.690;5.202;2023-04-24T03:43:23;53.83;;;23.53;;
74995;SDS011;63545;51.690;5.202;2023-04-24T03:45:48;52.37;;;23.73;;
74995;SDS011;63545;51.690;5.202;2023-04-24T03:48:14;49.00;;;23.33;;
74995;SDS011;63545;51.690;5.202;2023-04-24T03:50:39;56.47;;;23.60;;
74995;SDS011;63545;51.690;5.202;2023-04-24T03:53:04;47.93;;;22.53;;
74995;SDS011;63545;51.690;5.202;2023-04-24T03:55:30;56.23;;;23.17;;
74995;SDS011;63545;51.690;5.202;2023-04-24T03:57:55;52.75;;;23.73;;
74995;SDS011;63545;51.690;5.202;2023-04-24T04:00:20;50.90;;;23.17;;
74995;SDS011;63545;51.690;5.202;2023-04-24T04:02:46;56.17;;;23.03;;
74995;SDS011;63545;51.690;5.202;2023-04-24T04:05:11;49.10;;;22.43;;
74995;SDS011;63545;51.690;5.202;2023-04-24T04:07:37;51.90;;;23.07;;
74995;SDS011;63545;51.690;5.202;2023-04-24T04:10:02;52.33;;;22.15;;
74995;SDS011;63545;51.690;5.202;2023-04-24T04:12:28;49.43;;;21.47;;
74995;SDS011;63545;51.690;5.202;2023-04-24T04:14:53;52.37;;;21.87;;
74995;SDS011;63545;51.690;5.202;2023-04-24T04:17:19;49.63;;;20.50;;
74995;SDS011;63545;51.690;5.202;2023-04-24T04:19:44;48.53;;;20.38;;
74995;SDS011;63545;51.690;5.202;2023-04-24T04:22:09;47.23;;;20.13;;
74995;SDS011;63545;51.690;5.202;2023-04-24T04:24:35;39.93;;;17.73;;
74995;SDS011;63545;51.690;5.202;2023-04-24T04:27:03;40.72;;;18.25;;
74995;SDS011;63545;51.690;5.202;2023-04-24T04:29:29;48.78;;;17.08;;
74995;SDS011;63545;51.690;5.202;2023-04-24T04:31:56;34.13;;;14.80;;
74995;SDS011;63545;51.690;5.202;2023-04-24T04:34:22;33.25;;;14.93;;
74995;SDS011;63545;51.690;5.202;2023-04-24T04:36:47;37.25;;;13.48;;
74995;SDS011;63545;51.690;5.202;2023-04-24T04:39:13;23.00;;;11.63;;
74995;SDS011;63545;51.690;5.202;2023-04-24T04:41:39;20.40;;;10.43;;
74995;SDS011;63545;51.690;5.202;2023-04-24T04:44:05;23.87;;;10.30;;
74995;SDS011;63545;51.690;5.202;2023-04-24T04:46:31;16.10;;;8.07;;
74995;SDS011;63545;51.690;5.202;2023-04-24T04:48:58;17.90;;;7.60;;
74995;SDS011;63545;51.690;5.202;2023-04-24T04:51:24;20.50;;;7.82;;
74995;SDS011;63545;51.690;5.202;2023-04-24T04:53:50;15.37;;;6.90;;
74995;SDS011;63545;51.690;5.202;2023-04-24T04:56:15;17.53;;;7.13;;
74995;SDS011;63545;51.690;5.202;2023-04-24T04:58:40;23.08;;;7.50;;
74995;SDS011;63545;51.690;5.202;2023-04-24T05:01:06;13.93;;;7.53;;
74995;SDS011;63545;51.690;5.202;2023-04-24T05:03:32;15.07;;;6.33;;
74995;SDS011;63545;51.690;5.202;2023-04-24T05:05:57;13.97;;;6.70;;
74995;SDS011;63545;51.690;5.202;2023-04-24T05:08:22;15.98;;;6.85;;
74995;SDS011;63545;51.690;5.202;2023-04-24T05:10:48;12.50;;;7.60;;
74995;SDS011;63545;51.690;5.202;2023-04-24T05:13:13;15.60;;;7.27;;
74995;SDS011;63545;51.690;5.202;2023-04-24T05:15:39;18.97;;;7.67;;
74995;SDS011;63545;51.690;5.202;2023-04-24T05:18:04;15.13;;;7.93;;
74995;SDS011;63545;51.690;5.202;2023-04-24T05:20:29;9.77;;;5.73;;
74995;SDS011;63545;51.690;5.202;2023-04-24T05:22:55;16.50;;;7.57;;
74995;SDS011;63545;51.690;5.202;2023-04-24T05:25:20;12.60;;;7.00;;
74995;SDS011;63545;51.690;5.202;2023-04-24T05:27:46;18.80;;;8.53;;
74995;SDS011;63545;51.690;5.202;2023-04-24T05:30:11;16.60;;;8.40;;
74995;SDS011;63545;51.690;5.202;2023-04-24T05:32:37;23.83;;;10.53;;
74995;SDS011;63545;51.690;5.202;2023-04-24T05:35:02;15.70;;;9.43;;
74995;SDS011;63545;51.690;5.202;2023-04-24T05:37:28;17.83;;;9.70;;
74995;SDS011;63545;51.690;5.202;2023-04-24T05:39:53;20.40;;;10.20;;
74995;SDS011;63545;51.690;5.202;2023-04-24T05:42:18;13.80;;;9.23;;
74995;SDS011;63545;51.690;5.202;2023-04-24T05:44:44;15.13;;;8.87;;
74995;SDS011;63545;51.690;5.202;2023-04-24T05:47:09;16.37;;;8.87;;
74995;SDS011;63545;51.690;5.202;2023-04-24T05:49:34;21.60;;;10.30;;
74995;SDS011;63545;51.690;5.202;2023-04-24T05:52:00;16.43;;;9.47;;
74995;SDS011;63545;51.690;5.202;2023-04-24T05:54:25;17.73;;;10.77;;
74995;SDS011;63545;51.690;5.202;2023-04-24T05:56:50;18.80;;;10.03;;
74995;SDS011;63545;51.690;5.202;2023-04-24T05:59:16;27.13;;;11.63;;
74995;SDS011;63545;51.690;5.202;2023-04-24T06:01:41;24.07;;;13.13;;
74995;SDS011;63545;51.690;5.202;2023-04-24T06:04:07;27.45;;;12.85;;
74995;SDS011;63545;51.690;5.202;2023-04-24T06:06:32;26.47;;;13.87;;
74995;SDS011;63545;51.690;5.202;2023-04-24T06:08:58;24.97;;;12.73;;
74995;SDS011;63545;51.690;5.202;2023-04-24T06:11:23;24.03;;;11.50;;
74995;SDS011;63545;51.690;5.202;2023-04-24T06:13:49;29.05;;;9.30;;
74995;SDS011;63545;51.690;5.202;2023-04-24T06:16:15;15.77;;;8.30;;
74995;SDS011;63545;51.690;5.202;2023-04-24T06:18:40;6.90;;;4.23;;
74995;SDS011;63545;51.690;5.202;2023-04-24T06:21:06;8.77;;;5.37;;
74995;SDS011;63545;51.690;5.202;2023-04-24T06:23:31;14.57;;;8.77;;
74995;SDS011;63545;51.690;5.202;2023-04-24T06:25:58;15.77;;;7.63;;
74995;SDS011;63545;51.690;5.202;2023-04-24T06:28:23;20.17;;;10.88;;
74995;SDS011;63545;51.690;5.202;2023-04-24T06:30:49;21.67;;;11.20;;
74995;SDS011;63545;51.690;5.202;2023-04-24T06:33:15;18.20;;;9.87;;
74995;SDS011;63545;51.690;5.202;2023-04-24T06:35:41;20.50;;;8.60;;
74995;SDS011;63545;51.690;5.202;2023-04-24T06:38:06;20.70;;;9.83;;
74995;SDS011;63545;51.690;5.202;2023-04-24T06:40:31;19.27;;;10.27;;
74995;SDS011;63545;51.690;5.202;2023-04-24T06:42:57;24.50;;;12.03;;
74995;SDS011;63545;51.690;5.202;2023-04-24T06:45:23;24.33;;;12.18;;
74995;SDS011;63545;51.690;5.202;2023-04-24T06:47:48;27.60;;;13.07;;
74995;SDS011;63545;51.690;5.202;2023-04-24T06:50:14;27.07;;;11.80;;
74995;SDS011;63545;51.690;5.202;2023-04-24T06:52:40;25.63;;;13.73;;
74995;SDS011;63545;51.690;5.202;2023-04-24T06:55:05;29.55;;;13.30;;
74995;SDS011;63545;51.690;5.202;2023-04-24T06:57:31;32.80;;;13.98;;
74995;SDS011;63545;51.690;5.202;2023-04-24T06:59:57;34.43;;;14.77;;
74995;SDS011;63545;51.690;5.202;2023-04-24T07:02:22;37.47;;;14.53;;
74995;SDS011;63545;51.690;5.202;2023-04-24T07:04:47;24.65;;;12.38;;
74995;SDS011;63545;51.690;5.202;2023-04-24T07:07:13;26.97;;;13.17;;
74995;SDS011;63545;51.690;5.202;2023-04-24T07:09:39;36.50;;;14.68;;
74995;SDS011;63545;51.690;5.202;2023-04-24T07:12:07;30.90;;;11.73;;
74995;SDS011;63545;51.690;5.202;2023-04-24T07:14:33;30.33;;;11.57;;
74995;SDS011;63545;51.690;5.202;2023-04-24T07:16:58;33.27;;;14.47;;
74995;SDS011;63545;51.690;5.202;2023-04-24T07:19:23;25.77;;;10.83;;
74995;SDS011;63545;51.690;5.202;2023-04-24T07:21:49;25.42;;;10.13;;
74995;SDS011;63545;51.690;5.202;2023-04-24T07:24:14;23.10;;;10.20;;
74995;SDS011;63545;51.690;5.202;2023-04-24T07:26:40;21.57;;;8.83;;
74995;SDS011;63545;51.690;5.202;2023-04-24T07:29:05;20.47;;;8.70;;
74995;SDS011;63545;51.690;5.202;2023-04-24T07:31:31;22.15;;;7.60;;
74995;SDS011;63545;51.690;5.202;2023-04-24T07:33:56;18.73;;;7.33;;
74995;SDS011;63545;51.690;5.202;2023-04-24T07:36:23;19.38;;;7.47;;
74995;SDS011;63545;51.690;5.202;2023-04-24T07:38:49;24.42;;;7.40;;
74995;SDS011;63545;51.690;5.202;2023-04-24T07:41:14;25.40;;;8.23;;
74995;SDS011;63545;51.690;5.202;2023-04-24T07:43:40;29.50;;;8.73;;
74995;SDS011;63545;51.690;5.202;2023-04-24T07:46:06;17.60;;;5.20;;
74995;SDS011;63545;51.690;5.202;2023-04-24T07:48:34;25.58;;;6.82;;
74995;SDS011;63545;51.690;5.202;2023-04-24T07:51:00;23.57;;;7.40;;
74995;SDS011;63545;51.690;5.202;2023-04-24T07:53:25;21.30;;;5.77;;
74995;SDS011;63545;51.690;5.202;2023-04-24T07:55:50;24.97;;;7.20;;
74995;SDS011;63545;51.690;5.202;2023-04-24T07:58:16;19.33;;;6.40;;
74995;SDS011;63545;51.690;5.202;2023-04-24T08:00:41;25.40;;;7.60;;
74995;SDS011;63545;51.690;5.202;2023-04-24T08:03:07;19.37;;;6.83;;
74995;SDS011;63545;51.690;5.202;2023-04-24T08:05:32;30.63;;;8.40;;
74995;SDS011;63545;51.690;5.202;2023-04-24T08:07:58;19.20;;;5.30;;
74995;SDS011;63545;51.690;5.202;2023-04-24T08:10:23;28.83;;;8.40;;
74995;SDS011;63545;51.690;5.202;2023-04-24T08:12:49;22.33;;;6.37;;
74995;SDS011;63545;51.690;5.202;2023-04-24T08:15:15;18.33;;;6.03;;
74995;SDS011;63545;51.690;5.202;2023-04-24T08:17:40;29.97;;;6.37;;
74995;SDS011;63545;51.690;5.202;2023-04-24T08:20:06;31.53;;;6.60;;
74995;SDS011;63545;51.690;5.202;2023-04-24T08:22:38;19.58;;;5.95;;
74995;SDS011;63545;51.690;5.202;2023-04-24T08:25:03;30.03;;;6.80;;
74995;SDS011;63545;51.690;5.202;2023-04-24T08:27:29;26.88;;;6.22;;
74995;SDS011;63545;51.690;5.202;2023-04-24T08:29:54;25.43;;;5.40;;
74995;SDS011;63545;51.690;5.202;2023-04-24T08:32:19;19.63;;;4.97;;
74995;SDS011;63545;51.690;5.202;2023-04-24T08:34:45;16.43;;;3.97;;
74995;SDS011;63545;51.690;5.202;2023-04-24T08:37:10;20.70;;;4.87;;
74995;SDS011;63545;51.690;5.202;2023-04-24T08:39:36;23.90;;;4.77;;
74995;SDS011;63545;51.690;5.202;2023-04-24T08:42:01;27.08;;;4.82;;
74995;SDS011;63545;51.690;5.202;2023-04-24T08:44:31;9.70;;;3.03;;
74995;SDS011;63545;51.690;5.202;2023-04-24T08:46:57;14.95;;;4.03;;
74995;SDS011;63545;51.690;5.202;2023-04-24T08:49:23;26.33;;;4.70;;
74995;SDS011;63545;51.690;5.202;2023-04-24T08:51:49;23.98;;;4.82;;
74995;SDS011;63545;51.690;5.202;2023-04-24T08:54:15;20.07;;;4.23;;
74995;SDS011;63545;51.690;5.202;2023-04-24T08:56:42;21.58;;;4.50;;
74995;SDS011;63545;51.690;5.202;2023-04-24T08:59:08;13.38;;;3.60;;
74995;SDS011;63545;51.690;5.202;2023-04-24T09:01:34;9.47;;;2.90;;
74995;SDS011;63545;51.690;5.202;2023-04-24T09:04:01;19.70;;;3.95;;
74995;SDS011;63545;51.690;5.202;2023-04-24T09:06:28;8.93;;;2.60;;
74995;SDS011;63545;51.690;5.202;2023-04-24T09:08:55;14.77;;;3.47;;
74995;SDS011;63545;51.690;5.202;2023-04-24T09:11:21;12.98;;;3.72;;
74995;SDS011;63545;51.690;5.202;2023-04-24T09:13:49;16.00;;;3.15;;
74995;SDS011;63545;51.690;5.202;2023-04-24T09:16:14;10.57;;;3.20;;
74995;SDS011;63545;51.690;5.202;2023-04-24T09:18:40;9.90;;;2.92;;
74995;SDS011;63545;51.690;5.202;2023-04-24T09:21:07;9.57;;;3.40;;
74995;SDS011;63545;51.690;5.202;2023-04-24T09:23:33;13.00;;;3.05;;
74995;SDS011;63545;51.690;5.202;2023-04-24T09:25:59;7.33;;;2.73;;
74995;SDS011;63545;51.690;5.202;2023-04-24T09:28:29;7.33;;;2.50;;
74995;SDS011;63545;51.690;5.202;2023-04-24T09:31:08;11.45;;;3.25;;
74995;SDS011;63545;51.690;5.202;2023-04-24T09:33:34;7.20;;;2.80;;
74995;SDS011;63545;51.690;5.202;2023-04-24T09:36:00;13.33;;;3.77;;
74995;SDS011;63545;51.690;5.202;2023-04-24T09:38:34;11.63;;;2.20;;
74995;SDS011;63545;51.690;5.202;2023-04-24T09:41:07;9.93;;;2.80;;
74995;SDS011;63545;51.690;5.202;2023-04-24T09:43:33;9.65;;;2.88;;
74995;SDS011;63545;51.690;5.202;2023-04-24T09:46:00;14.93;;;2.90;;
74995;SDS011;63545;51.690;5.202;2023-04-24T09:48:33;14.77;;;3.20;;
74995;SDS011;63545;51.690;5.202;2023-04-24T09:51:03;7.82;;;2.38;;
74995;SDS011;63545;51.690;5.202;2023-04-24T09:53:31;7.97;;;2.50;;
74995;SDS011;63545;51.690;5.202;2023-04-24T09:56:06;10.17;;;2.93;;
74995;SDS011;63545;51.690;5.202;2023-04-24T09:58:34;11.63;;;2.60;;
74995;SDS011;63545;51.690;5.202;2023-04-24T10:01:00;10.98;;;2.63;;
74995;SDS011;63545;51.690;5.202;2023-04-24T10:03:26;7.77;;;3.00;;
74995;SDS011;63545;51.690;5.202;2023-04-24T10:05:58;7.28;;;2.47;;
74995;SDS011;63545;51.690;5.202;2023-04-24T10:08:24;7.65;;;2.40;;
74995;SDS011;63545;51.690;5.202;2023-04-24T10:10:50;8.03;;;2.00;;
74995;SDS011;63545;51.690;5.202;2023-04-24T10:13:15;7.33;;;3.00;;
74995;SDS011;63545;51.690;5.202;2023-04-24T10:15:41;7.78;;;2.50;;
74995;SDS011;63545;51.690;5.202;2023-04-24T10:18:07;8.20;;;2.13;;
74995;SDS011;63545;51.690;5.202;2023-04-24T10:20:34;9.23;;;2.00;;
74995;SDS011;63545;51.690;5.202;2023-04-24T10:23:00;10.70;;;2.20;;
74995;SDS011;63545;51.690;5.202;2023-04-24T10:25:27;7.07;;;1.80;;
74995;SDS011;63545;51.690;5.202;2023-04-24T10:27:54;9.48;;;2.30;;
74995;SDS011;63545;51.690;5.202;2023-04-24T10:30:24;2.53;;;1.20;;
74995;SDS011;63545;51.690;5.202;2023-04-24T10:32:51;4.53;;;1.30;;
74995;SDS011;63545;51.690;5.202;2023-04-24T10:35:17;4.07;;;1.10;;
74995;SDS011;63545;51.690;5.202;2023-04-24T10:38:06;3.95;;;1.05;;
74995;SDS011;63545;51.690;5.202;2023-04-24T10:40:34;3.70;;;1.15;;
74995;SDS011;63545;51.690;5.202;2023-04-24T10:43:03;4.13;;;1.50;;
74995;SDS011;63545;51.690;5.202;2023-04-24T10:45:32;2.65;;;0.70;;
74995;SDS011;63545;51.690;5.202;2023-04-24T10:47:59;2.38;;;1.30;;
74995;SDS011;63545;51.690;5.202;2023-04-24T10:50:41;5.27;;;1.30;;
74995;SDS011;63545;51.690;5.202;2023-04-24T10:53:17;5.90;;;1.50;;
74995;SDS011;63545;51.690;5.202;2023-04-24T10:55:45;5.15;;;1.80;;
74995;SDS011;63545;51.690;5.202;2023-04-24T10:58:15;3.80;;;1.85;;
74995;SDS011;63545;51.690;5.202;2023-04-24T11:00:42;3.72;;;1.50;;
74995;SDS011;63545;51.690;5.202;2023-04-24T11:03:29;7.83;;;1.80;;
74995;SDS011;63545;51.690;5.202;2023-04-24T11:05:59;6.88;;;1.35;;
74995;SDS011;63545;51.690;5.202;2023-04-24T11:08:44;3.40;;;1.10;;
74995;SDS011;63545;51.690;5.202;2023-04-24T11:11:14;4.03;;;1.10;;
74995;SDS011;63545;51.690;5.202;2023-04-24T11:16:25;3.00;;;1.03;;
74995;SDS011;63545;51.690;5.202;2023-04-24T11:21:40;5.03;;;1.40;;
74995;SDS011;63545;51.690;5.202;2023-04-24T11:37:44;4.53;;;1.17;;
74995;SDS011;63545;51.690;5.202;2023-04-24T11:40:12;7.13;;;1.30;;
74995;SDS011;63545;51.690;5.202;2023-04-24T11:42:39;4.17;;;1.30;;
74995;SDS011;63545;51.690;5.202;2023-04-24T11:45:09;8.13;;;1.63;;
74995;SDS011;63545;51.690;5.202;2023-04-24T11:47:36;4.35;;;1.55;;
74995;SDS011;63545;51.690;5.202;2023-04-24T11:50:02;10.63;;;1.43;;
74995;SDS011;63545;51.690;5.202;2023-04-24T11:52:29;8.77;;;1.77;;
74995;SDS011;63545;51.690;5.202;2023-04-24T11:54:55;6.57;;;1.48;;
74995;SDS011;63545;51.690;5.202;2023-04-24T11:57:21;8.80;;;1.70;;
74995;SDS011;63545;51.690;5.202;2023-04-24T11:59:48;9.32;;;1.80;;
74995;SDS011;63545;51.690;5.202;2023-04-24T12:02:20;5.03;;;1.33;;
74995;SDS011;63545;51.690;5.202;2023-04-24T12:04:46;6.57;;;1.80;;
74995;SDS011;63545;51.690;5.202;2023-04-24T12:07:12;4.73;;;1.43;;
74995;SDS011;63545;51.690;5.202;2023-04-24T12:09:57;3.10;;;1.00;;
74995;SDS011;63545;51.690;5.202;2023-04-24T12:12:25;5.35;;;1.65;;
74995;SDS011;63545;51.690;5.202;2023-04-24T12:14:55;6.40;;;1.83;;
74995;SDS011;63545;51.690;5.202;2023-04-24T12:17:25;6.07;;;1.48;;
74995;SDS011;63545;51.690;5.202;2023-04-24T12:19:59;6.20;;;1.53;;
74995;SDS011;63545;51.690;5.202;2023-04-24T12:22:26;6.55;;;1.55;;
74995;SDS011;63545;51.690;5.202;2023-04-24T12:25:03;5.43;;;1.38;;
74995;SDS011;63545;51.690;5.202;2023-04-24T12:27:31;5.32;;;1.65;;
74995;SDS011;63545;51.690;5.202;2023-04-24T12:29:57;4.37;;;1.70;;
74995;SDS011;63545;51.690;5.202;2023-04-24T12:32:24;6.32;;;1.80;;
74995;SDS011;63545;51.690;5.202;2023-04-24T12:34:53;6.03;;;1.88;;
74995;SDS011;63545;51.690;5.202;2023-04-24T12:37:24;5.45;;;1.63;;
74995;SDS011;63545;51.690;5.202;2023-04-24T12:40:04;9.52;;;2.10;;
74995;SDS011;63545;51.690;5.202;2023-04-24T12:42:34;3.97;;;1.20;;
74995;SDS011;63545;51.690;5.202;2023-04-24T12:45:04;6.63;;;2.00;;
74995;SDS011;63545;51.690;5.202;2023-04-24T12:47:31;6.07;;;2.00;;
74995;SDS011;63545;51.690;5.202;2023-04-24T12:49:57;6.13;;;1.80;;
74995;SDS011;63545;51.690;5.202;2023-04-24T12:52:23;4.77;;;1.90;;
74995;SDS011;63545;51.690;5.202;2023-04-24T12:54:49;6.60;;;1.98;;
74995;SDS011;63545;51.690;5.202;2023-04-24T12:57:15;7.30;;;1.88;;
74995;SDS011;63545;51.690;5.202;2023-04-24T12:59:41;6.57;;;2.23;;
74995;SDS011;63545;51.690;5.202;2023-04-24T13:02:06;3.43;;;1.67;;
74995;SDS011;63545;51.690;5.202;2023-04-24T13:04:32;5.60;;;2.00;;
74995;SDS011;63545;51.690;5.202;2023-04-24T13:06:57;7.10;;;2.25;;
74995;SDS011;63545;51.690;5.202;2023-04-24T13:09:23;4.57;;;2.30;;
74995;SDS011;63545;51.690;5.202;2023-04-24T13:11:49;6.53;;;2.17;;
74995;SDS011;63545;51.690;5.202;2023-04-24T13:14:14;6.27;;;2.17;;
74995;SDS011;63545;51.690;5.202;2023-04-24T13:16:40;4.43;;;1.60;;
74995;SDS011;63545;51.690;5.202;2023-04-24T13:19:05;7.57;;;2.03;;
74995;SDS011;63545;51.690;5.202;2023-04-24T13:21:31;7.87;;;1.97;;
74995;SDS011;63545;51.690;5.202;2023-04-24T13:23:56;3.00;;;1.63;;
74995;SDS011;63545;51.690;5.202;2023-04-24T13:26:22;5.25;;;1.40;;
74995;SDS011;63545;51.690;5.202;2023-04-24T13:28:47;4.93;;;1.57;;
74995;SDS011;63545;51.690;5.202;2023-04-24T13:31:12;4.07;;;1.40;;
74995;SDS011;63545;51.690;5.202;2023-04-24T13:33:38;3.72;;;1.50;;
74995;SDS011;63545;51.690;5.202;2023-04-24T13:36:04;6.17;;;2.07;;
74995;SDS011;63545;51.690;5.202;2023-04-24T13:38:29;4.90;;;1.47;;
74995;SDS011;63545;51.690;5.202;2023-04-24T13:40:54;4.60;;;1.50;;
74995;SDS011;63545;51.690;5.202;2023-04-24T13:43:20;3.30;;;1.30;;
74995;SDS011;63545;51.690;5.202;2023-04-24T13:45:45;4.47;;;1.50;;
74995;SDS011;63545;51.690;5.202;2023-04-24T13:48:10;2.63;;;1.50;;
74995;SDS011;63545;51.690;5.202;2023-04-24T13:50:36;3.75;;;1.35;;
74995;SDS011;63545;51.690;5.202;2023-04-24T13:53:01;5.87;;;1.87;;
74995;SDS011;63545;51.690;5.202;2023-04-24T13:55:27;4.77;;;1.97;;
74995;SDS011;63545;51.690;5.202;2023-04-24T13:57:52;5.83;;;2.20;;
74995;SDS011;63545;51.690;5.202;2023-04-24T14:00:20;9.13;;;2.30;;
74995;SDS011;63545;51.690;5.202;2023-04-24T14:02:45;7.13;;;2.15;;
74995;SDS011;63545;51.690;5.202;2023-04-24T14:05:12;7.60;;;2.43;;
74995;SDS011;63545;51.690;5.202;2023-04-24T14:07:39;9.93;;;2.15;;
74995;SDS011;63545;51.690;5.202;2023-04-24T14:10:04;5.73;;;2.03;;
74995;SDS011;63545;51.690;5.202;2023-04-24T14:12:30;6.90;;;2.13;;
74995;SDS011;63545;51.690;5.202;2023-04-24T14:14:55;7.13;;;2.47;;
74995;SDS011;63545;51.690;5.202;2023-04-24T14:17:21;7.07;;;1.93;;
74995;SDS011;63545;51.690;5.202;2023-04-24T14:19:46;12.80;;;2.67;;
74995;SDS011;63545;51.690;5.202;2023-04-24T14:22:12;7.47;;;2.20;;
74995;SDS011;63545;51.690;5.202;2023-04-24T14:24:37;6.57;;;2.30;;
74995;SDS011;63545;51.690;5.202;2023-04-24T14:27:02;7.57;;;2.10;;
74995;SDS011;63545;51.690;5.202;2023-04-24T14:29:28;7.93;;;2.33;;
74995;SDS011;63545;51.690;5.202;2023-04-24T14:31:53;5.30;;;1.73;;
74995;SDS011;63545;51.690;5.202;2023-04-24T14:34:18;6.17;;;2.27;;
74995;SDS011;63545;51.690;5.202;2023-04-24T14:36:44;6.32;;;2.03;;
74995;SDS011;63545;51.690;5.202;2023-04-24T14:39:10;8.83;;;2.53;;
74995;SDS011;63545;51.690;5.202;2023-04-24T14:41:35;6.47;;;2.22;;
74995;SDS011;63545;51.690;5.202;2023-04-24T14:44:02;5.28;;;2.22;;
74995;SDS011;63545;51.690;5.202;2023-04-24T14:46:28;8.97;;;2.30;;